createdAt,value
2023-02-09T00:01:29.755Z,114.50
2023-02-09T00:03:58.418Z,114.60
2023-02-09T00:06:26.862Z,124.20
2023-02-09T00:08:55.037Z,119.20
2023-02-09T00:11:49.256Z,130.40
2023-02-09T00:14:21.110Z,152.10
2023-02-09T00:16:51.913Z,141.10
2023-02-09T00:19:20.916Z,126.90
2023-02-09T00:21:49.435Z,146.60
2023-02-09T00:24:18.006Z,145.70
2023-02-09T00:26:46.195Z,150.00
2023-02-09T00:29:14.669Z,159.20
2023-02-09T00:31:45.416Z,157.60
2023-02-09T00:34:13.900Z,140.90
2023-02-09T00:36:42.143Z,185.60
2023-02-09T00:39:10.181Z,233.00
2023-02-09T00:41:57.411Z,241.60
2023-02-09T00:44:25.945Z,232.00
2023-02-09T00:46:54.654Z,236.10
2023-02-09T00:49:22.809Z,229.10
2023-02-09T00:51:51.146Z,208.90
2023-02-09T00:54:20.123Z,160.20
2023-02-09T00:56:48.103Z,158.20
2023-02-09T00:59:16.187Z,168.30
2023-02-09T01:01:44.280Z,177.70
2023-02-09T01:04:12.586Z,163.20
2023-02-09T01:06:40.703Z,167.60
2023-02-09T01:09:08.932Z,173.10
2023-02-09T01:11:36.961Z,199.30
2023-02-09T01:14:05.730Z,190.10
2023-02-09T01:16:33.887Z,218.70
2023-02-09T01:19:02.396Z,210.00
2023-02-09T01:21:31.059Z,215.00
2023-02-09T01:23:59.745Z,183.80
2023-02-09T01:26:27.965Z,181.60
2023-02-09T01:28:56.203Z,170.60
2023-02-09T01:31:25.489Z,162.10
2023-02-09T01:33:54.979Z,183.40
2023-02-09T01:36:23.300Z,163.70
2023-02-09T01:38:51.591Z,166.30
2023-02-09T01:41:19.635Z,144.00
2023-02-09T01:43:49.444Z,155.30
2023-02-09T01:46:17.657Z,167.40
2023-02-09T01:48:48.768Z,166.50
2023-02-09T01:51:19.824Z,165.40
2023-02-09T01:53:47.978Z,159.40
2023-02-09T01:56:18.766Z,144.20
2023-02-09T01:58:46.990Z,134.80
2023-02-09T02:01:15.998Z,133.30
2023-02-09T02:03:44.245Z,114.20
2023-02-09T02:06:15.346Z,106.60
2023-02-09T02:09:13.923Z,113.40
2023-02-09T02:11:46.570Z,98.90
2023-02-09T02:14:36.660Z,108.60
2023-02-09T02:20:26.233Z,105.60
2023-02-09T02:23:07.592Z,116.70
2023-02-09T02:25:51.289Z,127.50
2023-02-09T02:28:45.788Z,124.80
2023-02-09T02:31:13.877Z,128.10
2023-02-09T02:33:54.489Z,140.90
2023-02-09T02:36:34.859Z,132.50
2023-02-09T02:39:13.466Z,120.40
2023-02-09T02:42:10.439Z,123.00
2023-02-09T02:44:39.834Z,135.40
2023-02-09T02:47:08.009Z,130.70
2023-02-09T02:49:46.714Z,121.80
2023-02-09T02:52:14.701Z,122.60
2023-02-09T02:54:58.188Z,119.40
2023-02-09T02:57:27.996Z,116.20
2023-02-09T03:00:02.182Z,130.20
2023-02-09T03:02:33.720Z,124.00
2023-02-09T03:05:01.750Z,131.90
2023-02-09T03:07:30.156Z,129.20
2023-02-09T03:09:58.400Z,124.90
2023-02-09T03:12:51.583Z,123.60
2023-02-09T03:15:33.092Z,123.70
2023-02-09T03:18:31.003Z,121.50
2023-02-09T03:21:11.906Z,122.20
2023-02-09T03:23:54.527Z,122.40
2023-02-09T03:26:27.129Z,113.90
2023-02-09T03:28:56.671Z,109.10
2023-02-09T03:31:24.840Z,109.10
2023-02-09T03:33:53.032Z,109.00
2023-02-09T03:36:21.027Z,99.60
2023-02-09T03:38:49.148Z,101.00
2023-02-09T03:41:17.094Z,99.70
2023-02-09T03:44:41.282Z,104.00
2023-02-09T03:47:19.012Z,95.40
2023-02-09T03:49:47.205Z,98.00
2023-02-09T03:52:15.664Z,96.10
2023-02-09T03:54:44.491Z,107.10
2023-02-09T03:57:12.368Z,102.10
2023-02-09T03:59:40.484Z,95.00
2023-02-09T04:02:09.421Z,99.20
2023-02-09T04:04:37.591Z,100.40
2023-02-09T04:07:06.390Z,97.50
2023-02-09T04:09:36.719Z,104.10
2023-02-09T04:12:04.994Z,98.00
2023-02-09T04:14:33.886Z,94.10
2023-02-09T04:17:02.500Z,84.70
2023-02-09T04:19:30.570Z,94.20
2023-02-09T04:21:59.223Z,88.40
2023-02-09T04:24:29.022Z,92.50
2023-02-09T04:26:57.417Z,100.70
2023-02-09T04:29:26.159Z,135.20
2023-02-09T04:31:54.231Z,96.80
2023-02-09T04:34:24.588Z,98.90
2023-02-09T04:36:56.343Z,116.30
2023-02-09T04:39:24.322Z,125.70
2023-02-09T04:41:53.164Z,114.20
2023-02-09T04:44:21.349Z,144.90
2023-02-09T04:46:49.205Z,117.00
2023-02-09T04:49:17.607Z,133.50
2023-02-09T04:51:45.493Z,120.40
2023-02-09T04:54:13.746Z,125.30
2023-02-09T04:56:43.916Z,118.50
2023-02-09T04:59:30.497Z,123.50
2023-02-09T05:01:59.239Z,153.60
2023-02-09T05:04:27.560Z,136.50
2023-02-09T05:06:55.736Z,152.40
2023-02-09T05:09:23.711Z,157.00
2023-02-09T05:11:55.324Z,168.80
2023-02-09T05:14:23.301Z,151.90
2023-02-09T05:16:51.297Z,147.30
2023-02-09T05:19:19.338Z,113.20
2023-02-09T05:21:47.625Z,107.80
2023-02-09T05:24:15.743Z,127.10
2023-02-09T05:26:43.829Z,165.80
2023-02-09T05:29:12.144Z,138.80
2023-02-09T05:31:40.462Z,118.70
2023-02-09T05:34:08.497Z,110.60
2023-02-09T05:36:36.722Z,125.80
2023-02-09T05:39:05.087Z,108.60
2023-02-09T05:41:51.890Z,103.00
2023-02-09T05:44:20.328Z,101.50
2023-02-09T05:46:48.168Z,105.30
2023-02-09T05:49:16.172Z,111.00
2023-02-09T05:51:44.279Z,107.90
2023-02-09T05:54:12.383Z,107.80
2023-02-09T05:56:40.981Z,100.70
2023-02-09T05:59:09.060Z,99.10
2023-02-09T06:01:37.113Z,100.10
2023-02-09T06:04:05.765Z,100.90
2023-02-09T06:06:33.762Z,91.60
2023-02-09T06:09:01.961Z,100.80
2023-02-09T06:11:30.073Z,98.00
2023-02-09T06:13:57.977Z,92.10
2023-02-09T06:16:26.122Z,89.10
2023-02-09T06:18:54.259Z,92.30
2023-02-09T06:21:23.001Z,90.00
2023-02-09T06:23:51.502Z,92.20
2023-02-09T06:26:19.455Z,91.90
2023-02-09T06:28:47.487Z,87.40
2023-02-09T06:31:15.959Z,89.40
2023-02-09T06:33:44.205Z,88.50
2023-02-09T06:36:13.456Z,94.90
2023-02-09T06:38:41.513Z,81.20
2023-02-09T06:41:09.513Z,99.40
2023-02-09T06:43:37.861Z,100.60
2023-02-09T06:46:13.905Z,92.40
2023-02-09T06:48:43.935Z,107.80
2023-02-09T06:51:13.852Z,96.30
2023-02-09T06:53:42.930Z,100.30
2023-02-09T06:56:11.207Z,93.00
2023-02-09T06:58:40.084Z,94.00
2023-02-09T07:01:12.313Z,93.20
2023-02-09T07:03:41.774Z,87.40
2023-02-09T07:06:17.269Z,89.70
2023-02-09T07:08:46.184Z,94.80
2023-02-09T07:11:16.530Z,97.20
2023-02-09T07:13:45.895Z,89.90
2023-02-09T07:16:14.539Z,91.50
2023-02-09T07:18:42.950Z,85.60
2023-02-09T07:21:12.669Z,91.10
2023-02-09T07:23:40.648Z,83.30
2023-02-09T07:26:13.370Z,85.10
2023-02-09T07:28:41.406Z,91.00
2023-02-09T07:31:11.264Z,93.40
2023-02-09T07:33:39.896Z,97.40
2023-02-09T07:36:09.792Z,83.20
2023-02-09T07:38:38.486Z,90.40
2023-02-09T07:41:07.312Z,88.30
2023-02-09T07:43:36.496Z,85.30
2023-02-09T07:46:06.140Z,82.70
2023-02-09T07:48:34.820Z,89.20
2023-02-09T07:51:02.869Z,86.70
2023-02-09T07:53:30.809Z,95.10
2023-02-09T07:55:58.812Z,96.20
2023-02-09T07:58:26.686Z,97.80
2023-02-09T08:00:54.574Z,105.90
2023-02-09T08:03:23.171Z,126.30
2023-02-09T08:06:13.060Z,129.60
2023-02-09T08:08:43.213Z,117.50
2023-02-09T08:11:11.611Z,103.60
2023-02-09T08:13:41.745Z,121.90
2023-02-09T08:16:12.020Z,109.00
2023-02-09T08:18:45.258Z,118.80
2023-02-09T08:21:14.067Z,102.30
2023-02-09T08:23:42.950Z,107.60
2023-02-09T08:26:12.146Z,98.40
2023-02-09T08:28:44.949Z,98.20
2023-02-09T08:31:15.046Z,100.20
2023-02-09T08:33:47.991Z,111.80
2023-02-09T08:36:16.769Z,154.80
2023-02-09T08:38:45.403Z,155.00
2023-02-09T08:41:14.482Z,191.50
2023-02-09T08:43:42.429Z,185.50
2023-02-09T08:46:12.213Z,205.80
2023-02-09T08:48:41.588Z,177.10
2023-02-09T08:51:10.942Z,154.20
2023-02-09T08:53:39.434Z,124.40
2023-02-09T08:56:07.525Z,133.10
2023-02-09T08:58:36.744Z,129.10
2023-02-09T09:01:05.770Z,140.10
2023-02-09T09:03:33.760Z,128.00
2023-02-09T09:06:03.360Z,127.70
2023-02-09T09:08:32.390Z,119.10
2023-02-09T09:11:00.751Z,104.50
2023-02-09T09:13:28.983Z,108.70
2023-02-09T09:15:56.984Z,118.10
2023-02-09T09:18:25.850Z,119.20
2023-02-09T09:20:56.225Z,109.20
2023-02-09T09:23:24.561Z,123.20
2023-02-09T09:25:52.586Z,112.20
2023-02-09T09:28:21.454Z,111.80
2023-02-09T09:30:49.555Z,109.20
2023-02-09T09:33:17.616Z,113.30
2023-02-09T09:35:47.056Z,116.00
2023-02-09T09:38:15.492Z,99.80
2023-02-09T09:40:44.852Z,93.80
2023-02-09T09:43:20.404Z,88.00
2023-02-09T09:45:48.762Z,93.60
2023-02-09T09:48:35.149Z,94.80
2023-02-09T09:51:14.126Z,88.50
2023-02-09T09:53:42.100Z,84.10
2023-02-09T09:56:10.308Z,84.30
2023-02-09T09:58:40.021Z,82.10
2023-02-09T10:01:18.826Z,69.90
2023-02-09T10:03:46.711Z,64.70
2023-02-09T10:06:21.892Z,61.20
2023-02-09T10:08:57.819Z,55.70
2023-02-09T10:11:32.602Z,51.20
2023-02-09T10:14:01.529Z,52.70
2023-02-09T10:16:34.838Z,49.30
2023-02-09T10:19:05.297Z,50.40
2023-02-09T10:21:36.547Z,51.70
2023-02-09T10:24:25.696Z,46.20
2023-02-09T10:27:04.416Z,45.80
2023-02-09T10:29:32.432Z,43.10
2023-02-09T10:32:15.744Z,42.60
2023-02-09T10:34:49.927Z,48.50
2023-02-09T10:37:26.117Z,53.70
2023-02-09T10:39:59.159Z,48.60
2023-02-09T10:42:35.458Z,46.70
2023-02-09T10:45:38.878Z,44.80
2023-02-09T10:48:29.717Z,45.10
2023-02-09T10:51:12.265Z,40.30
2023-02-09T10:53:56.538Z,42.00
2023-02-09T10:56:26.518Z,37.50
2023-02-09T10:59:00.816Z,35.20
2023-02-09T11:01:31.884Z,34.10
2023-02-09T11:04:07.241Z,31.10
2023-02-09T11:06:46.748Z,41.10
2023-02-09T11:09:32.132Z,34.90
2023-02-09T11:12:00.512Z,30.90
2023-02-09T11:14:29.378Z,28.70
2023-02-09T11:17:17.775Z,25.30
2023-02-09T11:20:13.776Z,23.50
2023-02-09T11:22:51.144Z,24.90
2023-02-09T11:25:44.416Z,25.10
2023-02-09T11:28:28.473Z,26.10
2023-02-09T11:31:32.691Z,30.10
2023-02-09T11:34:33.906Z,26.90
2023-02-09T11:37:13.854Z,25.80
2023-02-09T11:40:01.428Z,31.40
2023-02-09T11:42:44.732Z,24.90
2023-02-09T11:45:42.230Z,26.60
2023-02-09T11:48:29.522Z,25.10
2023-02-09T11:51:14.674Z,36.90
2023-02-09T11:53:48.239Z,31.70
2023-02-09T11:56:18.029Z,36.50
2023-02-09T11:59:09.390Z,38.30
2023-02-09T12:01:50.134Z,45.90
2023-02-09T12:04:25.326Z,46.60
2023-02-09T12:06:57.292Z,45.40
2023-02-09T12:09:34.480Z,45.10
2023-02-09T12:12:14.288Z,41.40
2023-02-09T12:15:22.384Z,42.70
2023-02-09T12:17:54.928Z,37.80
2023-02-09T12:20:30.626Z,41.50
2023-02-09T12:23:02.678Z,39.50
2023-02-09T12:25:56.457Z,37.80
2023-02-09T12:28:24.429Z,38.50
2023-02-09T12:30:52.373Z,123.40
2023-02-09T12:33:23.391Z,92.60
2023-02-09T12:36:10.152Z,52.40
2023-02-09T12:38:49.512Z,36.40
2023-02-09T12:41:24.726Z,36.00
2023-02-09T12:44:11.654Z,35.40
2023-02-09T12:46:46.563Z,556.80
2023-02-09T12:49:15.942Z,200.60
2023-02-09T12:51:53.236Z,73.30
2023-02-09T12:54:31.931Z,54.50
2023-02-09T12:57:15.011Z,43.10
2023-02-09T12:59:59.749Z,48.00
2023-02-09T13:02:49.655Z,39.50
2023-02-09T13:05:27.590Z,38.70
2023-02-09T13:08:10.915Z,40.40
2023-02-09T13:10:50.854Z,32.10
2023-02-09T13:13:38.276Z,40.80
2023-02-09T13:16:24.588Z,39.40
2023-02-09T13:19:16.970Z,40.60
2023-02-09T13:21:57.796Z,34.10
2023-02-09T13:24:46.898Z,34.40
2023-02-09T13:27:19.510Z,33.70
2023-02-09T13:29:49.096Z,39.50
2023-02-09T13:32:17.108Z,33.20
2023-02-09T13:34:52.687Z,30.20
2023-02-09T13:37:26.531Z,30.10
2023-02-09T13:39:57.661Z,30.30
2023-02-09T13:42:26.460Z,30.00
2023-02-09T13:44:56.591Z,28.10
2023-02-09T13:47:25.352Z,28.30
2023-02-09T13:50:01.998Z,24.90
2023-02-09T13:52:36.408Z,26.90
2023-02-09T13:55:21.263Z,25.30
2023-02-09T13:58:00.766Z,26.20
2023-02-09T14:00:30.265Z,28.10
2023-02-09T14:03:02.750Z,23.60
2023-02-09T14:05:47.587Z,25.60
2023-02-09T14:08:16.536Z,24.70
2023-02-09T14:10:51.151Z,24.50
2023-02-09T14:13:26.627Z,24.40
2023-02-09T14:16:09.842Z,25.40
2023-02-09T16:20:35.464Z,35.70
2023-02-09T16:23:19.841Z,38.30
2023-02-09T16:25:50.163Z,36.30
2023-02-09T16:28:18.571Z,44.60
2023-02-09T16:30:48.496Z,45.80
2023-02-09T16:33:16.534Z,52.00
2023-02-09T16:35:45.735Z,50.80
2023-02-09T16:38:18.228Z,44.20
2023-02-09T16:40:46.467Z,51.00
2023-02-09T16:43:14.743Z,47.70
2023-02-09T16:45:48.505Z,49.80
2023-02-09T16:48:28.922Z,93.70
2023-02-09T16:50:56.877Z,90.20
2023-02-09T16:53:33.020Z,96.60
2023-02-09T16:56:04.799Z,79.90
2023-02-09T16:58:32.878Z,72.00
2023-02-09T17:01:00.921Z,69.80
2023-02-09T17:03:36.795Z,72.40
2023-02-09T17:06:05.927Z,73.70
2023-02-09T17:08:34.723Z,62.30
2023-02-09T17:11:03.463Z,162.30
2023-02-09T17:13:32.161Z,304.80
2023-02-09T17:16:04.558Z,155.00
2023-02-09T17:18:34.747Z,99.50
2023-02-09T17:21:26.760Z,81.10
2023-02-09T17:23:54.981Z,201.00
2023-02-09T17:26:22.996Z,155.80
2023-02-09T17:28:51.171Z,91.10
2023-02-09T17:31:21.518Z,103.20
2023-02-09T17:33:54.700Z,116.50
2023-02-09T17:36:27.674Z,197.20
2023-02-09T17:38:57.494Z,389.60
2023-02-09T17:41:43.239Z,305.80
2023-02-09T17:44:24.073Z,235.00
2023-02-09T17:46:57.190Z,245.40
2023-02-09T17:49:25.182Z,198.10
2023-02-09T17:51:53.203Z,187.20
2023-02-09T17:54:21.397Z,159.10
2023-02-09T17:56:49.497Z,139.60
2023-02-09T17:59:20.347Z,113.20
2023-02-09T18:01:51.824Z,99.90
2023-02-09T18:04:26.904Z,90.80
2023-02-09T18:06:57.630Z,89.60
2023-02-09T18:09:26.041Z,87.60
2023-02-09T18:12:02.315Z,82.80
2023-02-09T18:14:32.502Z,88.20
2023-02-09T18:17:01.651Z,84.60
2023-02-09T18:19:30.060Z,79.00
2023-02-09T18:22:00.442Z,74.50
2023-02-09T18:24:31.841Z,75.00
2023-02-09T18:27:01.936Z,71.50
2023-02-09T18:29:30.483Z,82.00
2023-02-09T18:31:59.392Z,127.50
2023-02-09T18:34:28.250Z,139.10
2023-02-09T18:36:56.255Z,164.40
2023-02-09T18:39:24.468Z,192.80
2023-02-09T18:41:56.259Z,129.70
2023-02-09T18:44:28.781Z,141.70
2023-02-09T18:46:57.905Z,122.70
2023-02-09T18:49:26.272Z,114.40
2023-02-09T18:51:57.103Z,101.10
2023-02-09T18:54:26.165Z,125.10
2023-02-09T18:56:58.181Z,151.20
2023-02-09T18:59:30.511Z,104.80
2023-02-09T19:01:58.922Z,84.50
2023-02-09T19:04:27.041Z,68.40
2023-02-09T19:06:55.884Z,68.00
2023-02-09T19:09:24.458Z,65.40
2023-02-09T19:11:52.360Z,72.30
2023-02-09T19:14:38.982Z,62.30
2023-02-09T19:17:09.000Z,62.70
2023-02-09T19:19:38.769Z,65.10
2023-02-09T19:22:07.432Z,71.20
2023-02-09T19:24:35.938Z,67.90
2023-02-09T19:27:06.706Z,63.80
2023-02-09T19:29:35.650Z,63.10
2023-02-09T19:32:05.638Z,66.80
2023-02-09T19:34:37.110Z,61.30
2023-02-09T19:37:06.212Z,67.60
2023-02-09T19:39:38.286Z,60.90
2023-02-09T19:42:06.721Z,76.30
2023-02-09T19:44:35.390Z,73.50
2023-02-09T19:47:03.291Z,64.80
2023-02-09T19:49:32.823Z,68.30
2023-02-09T19:52:02.332Z,61.80
2023-02-09T19:54:31.360Z,60.70
2023-02-09T19:56:59.932Z,55.50
2023-02-09T19:59:27.823Z,61.50
2023-02-09T20:01:56.605Z,63.20
2023-02-09T20:04:24.611Z,55.40
2023-02-09T20:06:52.540Z,58.60
2023-02-09T20:09:28.180Z,65.00
2023-02-09T20:14:25.295Z,63.20
2023-02-09T20:16:53.988Z,64.80
2023-02-09T20:19:22.488Z,76.70
2023-02-09T20:21:52.430Z,88.30
2023-02-09T20:24:20.854Z,92.20
2023-02-09T20:26:48.944Z,84.70
2023-02-09T20:29:17.070Z,88.20
2023-02-09T20:31:47.579Z,82.70
2023-02-09T20:34:15.767Z,90.20
2023-02-09T20:36:44.922Z,83.60
2023-02-09T20:39:17.780Z,85.40
2023-02-09T20:42:04.845Z,80.20
2023-02-09T20:44:52.461Z,81.20
2023-02-09T20:47:20.787Z,72.20
2023-02-09T20:49:48.999Z,74.30
2023-02-09T20:52:17.116Z,73.70
2023-02-09T20:54:45.055Z,82.90
2023-02-09T20:57:12.929Z,76.80
2023-02-09T20:59:41.343Z,72.20
2023-02-09T21:02:15.185Z,65.50
2023-02-09T21:04:43.350Z,67.70
2023-02-09T21:07:11.560Z,65.10
2023-02-09T21:09:39.585Z,66.50
2023-02-09T21:12:07.587Z,72.00
2023-02-09T21:14:43.949Z,70.30
2023-02-09T21:17:14.682Z,69.70
2023-02-09T21:19:43.268Z,56.80
2023-02-09T21:22:11.458Z,54.90
2023-02-09T21:24:40.225Z,58.40
2023-02-09T21:27:08.368Z,61.00
2023-02-09T21:29:37.607Z,60.90
2023-02-09T21:32:06.274Z,61.40
2023-02-09T21:34:34.238Z,62.30
2023-02-09T21:37:02.464Z,56.30
2023-02-09T21:39:31.544Z,58.60
2023-02-09T21:42:18.284Z,51.30
2023-02-09T21:44:46.454Z,56.80
2023-02-09T21:47:14.563Z,53.30
2023-02-09T21:49:42.805Z,59.20
2023-02-09T21:52:11.088Z,57.90
2023-02-09T21:54:39.436Z,53.10
2023-02-09T21:57:07.587Z,49.70
2023-02-09T21:59:36.296Z,53.60
2023-02-09T22:02:04.502Z,58.90
2023-02-09T22:04:33.502Z,55.50
2023-02-09T22:07:01.668Z,53.10
2023-02-09T22:09:30.825Z,56.30
2023-02-09T22:11:58.833Z,52.50
2023-02-09T22:14:26.941Z,52.30
2023-02-09T22:16:54.984Z,57.50
2023-02-09T22:19:23.266Z,53.20
2023-02-09T22:21:51.801Z,57.50
2023-02-09T22:24:19.902Z,55.80
2023-02-09T22:26:49.213Z,50.10
2023-02-09T22:29:17.863Z,53.60
2023-02-09T22:31:46.591Z,56.90
2023-02-09T22:34:14.485Z,59.90
2023-02-09T22:36:42.933Z,60.10
2023-02-09T22:39:11.064Z,54.30
2023-02-09T22:41:39.592Z,57.00
2023-02-09T22:44:10.199Z,55.30
2023-02-09T22:46:40.037Z,55.50
2023-02-09T22:49:18.375Z,52.80
2023-02-09T22:51:47.199Z,51.40
2023-02-09T22:54:19.567Z,52.00
2023-02-09T22:56:47.462Z,53.80
2023-02-09T22:59:15.608Z,47.10
2023-02-09T23:01:43.825Z,43.30
2023-02-09T23:04:11.903Z,46.20
2023-02-09T23:06:40.352Z,50.70
2023-02-09T23:09:08.856Z,47.70
2023-02-09T23:11:36.819Z,43.00
2023-02-09T23:14:12.414Z,41.10
2023-02-09T23:16:41.529Z,44.30
2023-02-09T23:19:14.323Z,45.60
2023-02-09T23:21:44.508Z,42.30
2023-02-09T23:24:14.690Z,42.40
2023-02-09T23:26:43.107Z,43.10
2023-02-09T23:29:12.595Z,48.20
2023-02-09T23:31:41.716Z,51.30
2023-02-09T23:34:19.133Z,44.10
2023-02-09T23:36:47.400Z,53.40
2023-02-09T23:39:18.259Z,46.40
2023-02-09T23:41:46.224Z,54.10
2023-02-09T23:44:14.264Z,54.30
2023-02-09T23:46:42.902Z,55.70
2023-02-09T23:49:11.482Z,54.90
2023-02-09T23:51:39.534Z,51.10
2023-02-09T23:54:07.592Z,64.20
2023-02-09T23:56:39.177Z,59.90
2023-02-09T23:59:11.250Z,62.70
